createdAt,value
2024-03-04T00:01:29.056Z,78.99
2024-03-04T00:03:57.288Z,79.00
2024-03-04T00:06:24.941Z,78.92
2024-03-04T00:08:54.881Z,78.70
2024-03-04T00:11:22.455Z,78.86
2024-03-04T00:13:49.903Z,78.80
2024-03-04T00:16:17.478Z,78.71
2024-03-04T00:18:44.979Z,78.72
2024-03-04T00:21:12.469Z,78.36
2024-03-04T00:23:40.043Z,78.51
2024-03-04T00:26:08.234Z,78.40
2024-03-04T00:28:35.776Z,78.33
2024-03-04T00:31:04.546Z,78.46
2024-03-04T00:33:32.909Z,78.29
2024-03-04T00:36:00.509Z,78.27
2024-03-04T00:38:28.358Z,78.06
2024-03-04T00:40:56.054Z,78.36
2024-03-04T00:43:23.550Z,78.24
2024-03-04T00:45:51.498Z,78.18
2024-03-04T00:48:19.141Z,78.07
2024-03-04T00:50:47.121Z,77.91
2024-03-04T00:53:14.593Z,77.86
2024-03-04T00:55:42.132Z,78.07
2024-03-04T00:58:10.340Z,77.89
2024-03-04T01:00:38.491Z,77.71
2024-03-04T01:03:06.563Z,77.98
2024-03-04T01:05:34.807Z,78.01
2024-03-04T01:08:02.310Z,78.21
2024-03-04T01:10:29.821Z,78.04
2024-03-04T01:12:57.780Z,77.93
2024-03-04T01:15:27.119Z,78.07
2024-03-04T01:17:54.903Z,78.28
2024-03-04T01:20:22.487Z,78.27
2024-03-04T01:22:50.982Z,78.15
2024-03-04T01:25:18.590Z,77.82
2024-03-04T01:27:46.732Z,77.76
2024-03-04T01:30:15.198Z,77.53
2024-03-04T01:32:44.359Z,77.41
2024-03-04T01:35:16.557Z,77.46
2024-03-04T01:37:44.978Z,77.39
2024-03-04T01:40:14.980Z,77.19
2024-03-04T01:42:45.856Z,77.10
2024-03-04T01:45:33.221Z,77.15
2024-03-04T01:48:04.967Z,77.27
2024-03-04T01:50:37.314Z,77.07
2024-03-04T01:53:05.332Z,77.09
2024-03-04T01:55:44.246Z,77.10
2024-03-04T01:58:16.563Z,77.00
2024-03-04T02:00:45.728Z,77.27
2024-03-04T02:03:14.450Z,77.19
2024-03-04T02:05:42.117Z,77.25
2024-03-04T02:08:09.686Z,77.27
2024-03-04T02:10:37.218Z,77.21
2024-03-04T02:13:06.075Z,77.47
2024-03-04T02:15:37.513Z,77.39
2024-03-04T02:18:06.891Z,77.44
2024-03-04T02:20:42.653Z,77.62
2024-03-04T02:23:13.072Z,77.35
2024-03-04T02:25:51.160Z,77.58
2024-03-04T02:28:18.921Z,77.64
2024-03-04T02:30:46.510Z,77.83
2024-03-04T02:33:14.036Z,77.47
2024-03-04T02:35:41.772Z,77.50
2024-03-04T02:38:09.230Z,77.54
2024-03-04T02:40:36.845Z,77.61
2024-03-04T02:43:05.286Z,77.72
2024-03-04T02:45:32.775Z,77.56
2024-03-04T02:48:00.300Z,77.62
2024-03-04T02:50:28.479Z,77.59
2024-03-04T02:52:56.009Z,77.61
2024-03-04T02:55:23.501Z,77.60
2024-03-04T02:57:51.064Z,77.56
2024-03-04T03:00:19.398Z,77.62
2024-03-04T03:02:46.831Z,77.54
2024-03-04T03:05:14.321Z,77.70
2024-03-04T03:07:41.865Z,77.78
2024-03-04T03:10:10.527Z,77.67
2024-03-04T03:12:39.556Z,77.86
2024-03-04T03:15:07.966Z,77.87
2024-03-04T03:17:38.369Z,77.82
2024-03-04T03:20:18.659Z,77.94
2024-03-04T03:22:52.618Z,78.14
2024-03-04T03:25:20.125Z,78.14
2024-03-04T03:27:47.594Z,78.02
2024-03-04T03:30:15.962Z,78.21
2024-03-04T03:32:44.247Z,78.18
2024-03-04T03:35:11.806Z,78.37
2024-03-04T03:37:39.359Z,78.25
2024-03-04T03:40:08.845Z,78.26
2024-03-04T03:42:36.389Z,78.19
2024-03-04T03:45:04.510Z,78.20
2024-03-04T03:47:32.313Z,78.25
2024-03-04T03:49:59.741Z,78.06
2024-03-04T03:52:27.341Z,77.88
2024-03-04T03:54:55.052Z,77.83
2024-03-04T03:57:22.494Z,77.80
2024-03-04T03:59:50.019Z,77.45
2024-03-04T04:02:17.590Z,77.32
2024-03-04T04:04:45.359Z,77.18
2024-03-04T04:07:13.018Z,77.06
2024-03-04T04:09:40.592Z,76.80
2024-03-04T04:12:08.586Z,76.62
2024-03-04T04:14:36.109Z,76.71
2024-03-04T04:17:03.663Z,76.30
2024-03-04T04:19:31.172Z,76.16
2024-03-04T04:21:58.909Z,75.94
2024-03-04T04:24:26.552Z,75.79
2024-03-04T04:26:54.023Z,75.67
2024-03-04T04:29:21.514Z,75.61
2024-03-04T04:31:49.220Z,75.42
2024-03-04T04:34:16.862Z,75.39
2024-03-04T04:36:51.274Z,75.60
2024-03-04T04:39:18.761Z,75.37
2024-03-04T04:41:46.621Z,75.37
2024-03-04T04:44:14.225Z,75.34
2024-03-04T04:46:41.765Z,75.30
2024-03-04T04:49:09.442Z,75.31
2024-03-04T04:51:36.974Z,75.11
2024-03-04T04:54:04.487Z,74.99
2024-03-04T04:56:31.958Z,75.05
2024-03-04T04:58:59.428Z,74.94
2024-03-04T05:01:28.006Z,75.07
2024-03-04T05:04:14.025Z,74.96
2024-03-04T05:06:43.559Z,74.63
2024-03-04T05:09:12.313Z,74.38
2024-03-04T05:11:39.858Z,74.27
2024-03-04T05:14:12.499Z,74.10
2024-03-04T05:16:39.967Z,74.00
2024-03-04T05:19:07.518Z,73.79
2024-03-04T05:21:35.025Z,73.71
2024-03-04T05:24:02.838Z,73.49
2024-03-04T05:26:30.283Z,73.51
2024-03-04T05:28:57.888Z,73.69
2024-03-04T05:31:26.847Z,73.60
2024-03-04T05:33:54.401Z,73.16
2024-03-04T05:36:22.678Z,73.00
2024-03-04T05:38:50.129Z,72.91
2024-03-04T05:41:17.625Z,72.47
2024-03-04T05:43:45.735Z,72.27
2024-03-04T05:46:13.705Z,72.04
2024-03-04T05:49:29.308Z,71.86
2024-03-04T05:51:59.962Z,71.72
2024-03-04T05:54:29.027Z,71.79
2024-03-04T05:56:56.493Z,71.56
2024-03-04T05:59:23.978Z,71.38
2024-03-04T06:01:51.545Z,71.21
2024-03-04T06:04:19.346Z,71.31
2024-03-04T06:06:47.541Z,71.19
2024-03-04T06:09:17.204Z,71.12
2024-03-04T06:11:45.067Z,71.14
2024-03-04T06:14:12.536Z,71.15
2024-03-04T06:16:40.062Z,71.03
2024-03-04T06:19:07.673Z,70.71
2024-03-04T06:21:37.056Z,70.64
2024-03-04T06:24:04.930Z,70.78
2024-03-04T06:26:32.567Z,70.58
2024-03-04T06:28:59.990Z,70.41
2024-03-04T06:31:27.866Z,70.52
2024-03-04T06:33:57.151Z,70.51
2024-03-04T06:36:26.418Z,70.19
2024-03-04T06:38:53.871Z,70.39
2024-03-04T06:41:21.314Z,70.36
2024-03-04T06:43:48.856Z,70.26
2024-03-04T06:46:16.482Z,69.93
2024-03-04T06:48:45.160Z,69.93
2024-03-04T06:51:12.772Z,69.42
2024-03-04T06:53:40.965Z,69.28
2024-03-04T06:56:10.529Z,69.04
2024-03-04T06:58:38.408Z,69.03
2024-03-04T07:01:06.082Z,68.70
2024-03-04T07:03:33.782Z,68.78
2024-03-04T07:06:01.317Z,68.18
2024-03-04T07:08:31.603Z,67.89
2024-03-04T07:11:01.001Z,67.74
2024-03-04T07:13:28.688Z,67.80
2024-03-04T07:15:56.227Z,67.73
2024-03-04T07:18:23.762Z,67.26
2024-03-04T07:20:51.400Z,66.88
2024-03-04T07:23:18.935Z,66.93
2024-03-04T07:25:46.560Z,66.86
2024-03-04T07:28:15.513Z,66.56
2024-03-04T07:30:43.128Z,66.43
2024-03-04T07:33:13.223Z,66.27
2024-03-04T07:35:41.571Z,66.27
2024-03-04T07:38:09.626Z,66.28
2024-03-04T07:40:37.616Z,66.53
2024-03-04T07:43:05.521Z,66.30
2024-03-04T07:45:33.056Z,66.15
2024-03-04T07:48:00.628Z,66.32
2024-03-04T07:50:28.247Z,66.08
2024-03-04T07:52:55.926Z,65.63
2024-03-04T07:55:24.197Z,65.54
2024-03-04T07:57:51.797Z,65.01
2024-03-04T08:00:20.025Z,64.74
2024-03-04T08:02:47.598Z,64.38
2024-03-04T08:05:15.146Z,64.02
2024-03-04T08:07:42.738Z,63.57
2024-03-04T08:10:11.047Z,63.44
2024-03-04T08:12:38.890Z,62.93
2024-03-04T08:15:07.126Z,62.56
2024-03-04T08:17:34.925Z,62.03
2024-03-04T08:20:09.029Z,61.56
2024-03-04T08:22:41.940Z,61.46
2024-03-04T08:25:09.975Z,60.95
2024-03-04T08:27:37.576Z,60.47
2024-03-04T08:30:06.295Z,60.63
2024-03-04T08:32:34.105Z,60.23
2024-03-04T08:35:01.706Z,59.69
2024-03-04T08:37:29.650Z,58.92
2024-03-04T08:40:00.787Z,58.01
2024-03-04T08:42:28.450Z,57.25
2024-03-04T08:44:55.979Z,56.77
2024-03-04T08:47:23.799Z,56.18
2024-03-04T08:49:51.427Z,54.91
2024-03-04T08:52:19.116Z,53.54
2024-03-04T08:54:46.763Z,53.01
2024-03-04T08:57:14.466Z,52.81
2024-03-04T08:59:42.171Z,51.71
2024-03-04T09:02:11.742Z,51.61
2024-03-04T09:04:39.433Z,51.12
2024-03-04T09:07:07.121Z,50.58
2024-03-04T09:09:36.718Z,50.62
2024-03-04T09:12:05.252Z,50.51
2024-03-04T09:14:32.806Z,50.33
2024-03-04T09:17:00.384Z,50.44
2024-03-04T09:19:27.928Z,49.77
2024-03-04T09:21:56.317Z,49.32
2024-03-04T09:24:23.922Z,49.65
2024-03-04T09:26:51.418Z,49.02
2024-03-04T09:29:18.985Z,49.05
2024-03-04T09:31:46.684Z,48.44
2024-03-04T09:34:14.358Z,48.42
2024-03-04T09:36:41.956Z,47.93
2024-03-04T09:39:12.883Z,47.91
2024-03-04T09:41:42.149Z,47.57
2024-03-04T09:44:09.754Z,48.09
2024-03-04T09:46:38.819Z,47.44
2024-03-04T09:49:06.732Z,47.00
2024-03-04T09:51:34.321Z,46.78
2024-03-04T09:54:02.888Z,46.80
2024-03-04T09:56:30.430Z,45.95
2024-03-04T09:58:58.014Z,46.04
2024-03-04T10:01:25.964Z,45.82
2024-03-04T10:03:53.771Z,45.83
2024-03-04T10:06:21.554Z,46.08
2024-03-04T10:08:49.164Z,45.40
2024-03-04T10:11:16.714Z,45.59
2024-03-04T10:13:44.518Z,45.10
2024-03-04T10:16:16.598Z,44.48
2024-03-04T10:19:03.277Z,44.65
2024-03-04T10:21:34.478Z,44.34
2024-03-04T10:24:09.313Z,44.83
2024-03-04T10:26:41.830Z,45.02
2024-03-04T10:29:09.740Z,45.24
2024-03-04T10:31:41.994Z,46.07
2024-03-04T10:34:09.721Z,46.46
2024-03-04T10:36:37.363Z,46.82
2024-03-04T10:39:06.737Z,47.34
2024-03-04T10:41:35.560Z,47.97
2024-03-04T10:44:03.991Z,48.29
2024-03-04T10:46:31.591Z,48.75
2024-03-04T10:48:59.268Z,48.38
2024-03-04T10:51:30.129Z,48.57
2024-03-04T10:54:00.984Z,48.44
2024-03-04T10:56:28.575Z,48.51
2024-03-04T10:58:57.866Z,48.59
2024-03-04T11:01:26.789Z,48.01
2024-03-04T11:03:59.037Z,47.47
2024-03-04T11:06:27.300Z,47.37
2024-03-04T11:08:58.413Z,47.35
2024-03-04T11:11:40.280Z,47.33
2024-03-04T11:14:16.054Z,47.25
2024-03-04T11:16:49.347Z,46.99
2024-03-04T11:19:32.220Z,47.03
2024-03-04T11:21:59.814Z,47.35
2024-03-04T11:24:29.044Z,47.71
2024-03-04T11:26:57.138Z,47.81
2024-03-04T11:29:25.029Z,47.87
2024-03-04T11:31:56.658Z,48.18
2024-03-04T11:34:24.290Z,48.22
2024-03-04T11:36:53.320Z,48.56
2024-03-04T11:39:25.945Z,48.74
2024-03-04T11:41:54.533Z,49.02
2024-03-04T11:44:26.114Z,49.22
2024-03-04T11:46:54.170Z,49.66
2024-03-04T11:49:32.393Z,49.79
2024-03-04T11:52:07.597Z,50.01
2024-03-04T11:54:36.271Z,50.12
2024-03-04T11:57:05.706Z,50.07
2024-03-04T11:59:33.446Z,50.38
2024-03-04T12:02:01.270Z,50.35
2024-03-04T12:04:30.787Z,50.42
2024-03-04T12:06:58.460Z,50.72
2024-03-04T12:09:45.049Z,51.02
2024-03-04T12:12:17.911Z,51.16
2024-03-04T12:14:46.220Z,51.52
2024-03-04T12:17:15.202Z,51.79
2024-03-04T12:19:56.423Z,51.82
2024-03-04T12:22:27.301Z,51.61
2024-03-04T12:25:05.573Z,51.47
2024-03-04T12:27:34.129Z,51.51
2024-03-04T12:30:16.080Z,51.48
2024-03-04T12:32:44.219Z,51.74
2024-03-04T12:35:31.140Z,51.54
2024-03-04T12:38:00.391Z,51.71
2024-03-04T12:40:28.310Z,51.60
2024-03-04T12:43:01.137Z,51.48
2024-03-04T12:45:32.804Z,51.63
2024-03-04T12:48:00.916Z,51.87
2024-03-04T12:50:29.825Z,51.86
2024-03-04T12:52:58.572Z,51.94
2024-03-04T12:55:26.707Z,51.80
2024-03-04T12:57:57.922Z,51.71
2024-03-04T13:00:28.443Z,51.84
2024-03-04T13:02:56.305Z,51.84
2024-03-04T13:05:24.055Z,51.66
2024-03-04T13:07:51.664Z,51.55
2024-03-04T13:10:19.307Z,51.53
2024-03-04T13:12:49.813Z,51.76
2024-03-04T13:15:17.770Z,51.64
2024-03-04T13:17:46.220Z,51.81
2024-03-04T13:20:17.010Z,51.81
2024-03-04T13:22:47.056Z,51.81
2024-03-04T13:25:17.414Z,51.54
2024-03-04T13:27:45.482Z,51.73
2024-03-04T13:30:13.743Z,51.89
2024-03-04T13:32:41.465Z,52.06
2024-03-04T13:35:10.533Z,52.36
2024-03-04T13:37:39.279Z,52.51
2024-03-04T13:40:07.972Z,52.77
2024-03-04T13:42:35.824Z,52.98
2024-03-04T13:45:03.566Z,53.10
2024-03-04T13:47:31.150Z,53.21
2024-03-04T13:49:58.758Z,53.15
2024-03-04T13:52:26.361Z,53.25
2024-03-04T13:54:54.016Z,53.37
2024-03-04T13:57:21.527Z,53.27
2024-03-04T13:59:49.194Z,53.26
2024-03-04T14:02:16.776Z,53.13
2024-03-04T14:04:44.505Z,53.06
2024-03-04T14:07:12.212Z,53.01
2024-03-04T14:09:39.912Z,53.05
2024-03-04T14:12:08.126Z,53.22
2024-03-04T14:14:35.663Z,53.08
2024-03-04T14:17:03.234Z,52.80
2024-03-04T14:19:30.890Z,52.85
2024-03-04T14:21:59.085Z,52.90
2024-03-04T14:24:26.795Z,52.78
2024-03-04T14:26:54.324Z,52.60
2024-03-04T14:29:21.853Z,51.36
2024-03-04T14:31:49.677Z,50.82
2024-03-04T14:34:17.424Z,50.31
2024-03-04T14:36:45.032Z,49.84
2024-03-04T14:39:12.719Z,49.65
2024-03-04T14:41:40.558Z,49.34
2024-03-04T14:44:08.425Z,48.84
2024-03-04T14:46:35.957Z,48.41
2024-03-04T14:49:03.744Z,48.39
2024-03-04T14:51:31.410Z,48.35
2024-03-04T14:53:58.953Z,48.38
2024-03-04T14:56:29.846Z,48.73
2024-03-04T14:58:57.917Z,48.98
2024-03-04T15:01:25.599Z,49.22
2024-03-04T15:03:53.370Z,49.47
2024-03-04T15:06:20.978Z,49.34
2024-03-04T15:08:51.323Z,49.68
2024-03-04T15:11:18.966Z,50.23
2024-03-04T15:13:46.857Z,50.44
2024-03-04T15:16:14.932Z,50.78
2024-03-04T15:18:42.746Z,50.89
2024-03-04T15:21:10.642Z,51.14
2024-03-04T15:23:38.511Z,51.44
2024-03-04T15:26:06.048Z,51.99
2024-03-04T15:28:33.628Z,52.46
2024-03-04T15:31:02.547Z,53.02
2024-03-04T15:33:31.054Z,53.31
2024-03-04T15:36:09.950Z,53.71
2024-03-04T15:38:45.435Z,53.98
2024-03-04T15:41:13.200Z,54.18
2024-03-04T15:43:40.743Z,54.42
2024-03-04T15:46:08.493Z,54.60
2024-03-04T15:48:36.794Z,54.82
2024-03-04T15:51:06.385Z,55.24
2024-03-04T15:53:35.239Z,55.46
2024-03-04T15:56:04.887Z,55.63
2024-03-04T15:58:32.735Z,55.91
2024-03-04T16:01:00.668Z,56.11
2024-03-04T16:03:30.562Z,56.34
2024-03-04T16:05:59.524Z,56.50
2024-03-04T16:08:27.087Z,56.85
2024-03-04T16:10:54.803Z,56.94
2024-03-04T16:13:22.446Z,57.20
2024-03-04T16:15:54.332Z,57.32
2024-03-04T16:18:23.590Z,57.54
2024-03-04T16:20:51.193Z,57.69
2024-03-04T16:23:19.482Z,57.78
2024-03-04T16:25:47.172Z,57.94
2024-03-04T16:28:15.210Z,58.17
2024-03-04T16:30:44.061Z,58.24
2024-03-04T16:33:11.598Z,58.46
2024-03-04T16:35:39.203Z,58.67
2024-03-04T16:38:07.097Z,58.76
2024-03-04T16:40:34.689Z,58.93
2024-03-04T16:43:02.997Z,59.17
2024-03-04T16:45:32.097Z,59.28
2024-03-04T16:47:59.722Z,59.49
2024-03-04T16:50:27.408Z,59.71
2024-03-04T16:52:55.837Z,59.78
2024-03-04T16:55:24.152Z,59.96
2024-03-04T16:57:54.849Z,60.23
2024-03-04T17:00:22.559Z,60.34
2024-03-04T17:02:50.840Z,60.50
2024-03-04T17:05:18.375Z,60.50
2024-03-04T17:07:49.031Z,60.56
2024-03-04T17:10:17.801Z,60.62
2024-03-04T17:12:45.561Z,60.79
2024-03-04T17:15:13.631Z,60.92
2024-03-04T17:17:41.769Z,60.92
2024-03-04T17:20:10.236Z,61.17
2024-03-04T17:22:38.329Z,61.30
2024-03-04T17:25:07.058Z,61.49
2024-03-04T17:27:34.803Z,61.48
2024-03-04T17:30:02.576Z,61.52
2024-03-04T17:32:30.512Z,61.64
2024-03-04T17:34:58.445Z,61.79
2024-03-04T17:37:26.101Z,61.91
2024-03-04T17:39:54.043Z,62.20
2024-03-04T17:42:21.595Z,62.27
2024-03-04T17:44:49.134Z,62.31
2024-03-04T17:47:16.669Z,62.53
2024-03-04T17:49:51.082Z,62.60
2024-03-04T17:52:18.779Z,62.77
2024-03-04T17:54:46.352Z,62.91
2024-03-04T17:57:14.050Z,62.80
2024-03-04T17:59:42.629Z,62.98
2024-03-04T18:02:10.578Z,62.98
2024-03-04T18:07:11.634Z,63.17
2024-03-04T18:09:40.766Z,63.19
2024-03-04T18:12:08.883Z,63.30
2024-03-04T18:14:38.095Z,63.30
2024-03-04T18:17:05.674Z,63.48
2024-03-04T18:19:33.384Z,63.73
2024-03-04T18:22:04.528Z,63.78
2024-03-04T18:24:32.163Z,63.65
2024-03-04T18:26:59.966Z,63.81
2024-03-04T18:29:27.471Z,64.12
2024-03-04T18:31:55.122Z,64.25
2024-03-04T18:34:24.773Z,64.29
2024-03-04T18:36:52.601Z,64.40
2024-03-04T18:39:20.745Z,64.71
2024-03-04T18:41:48.999Z,64.92
2024-03-04T18:44:16.531Z,65.05
2024-03-04T18:46:47.655Z,65.31
2024-03-04T18:49:15.400Z,65.58
2024-03-04T18:51:43.365Z,65.48
2024-03-04T18:54:16.510Z,65.56
2024-03-04T18:56:44.978Z,65.84
2024-03-04T18:59:12.554Z,65.96
2024-03-04T19:01:40.259Z,66.13
2024-03-04T19:04:07.880Z,66.30
2024-03-04T19:06:35.808Z,66.35
2024-03-04T19:09:05.963Z,66.46
2024-03-04T19:11:33.786Z,66.62
2024-03-04T19:14:01.575Z,66.73
2024-03-04T19:16:29.391Z,66.88
2024-03-04T19:18:57.110Z,67.03
2024-03-04T19:21:27.000Z,67.25
2024-03-04T19:23:54.879Z,67.30
2024-03-04T19:26:22.459Z,67.33
2024-03-04T19:28:51.433Z,67.62
2024-03-04T19:31:19.965Z,67.74
2024-03-04T19:33:50.801Z,67.72
2024-03-04T19:36:18.624Z,67.79
2024-03-04T19:38:46.298Z,67.97
2024-03-04T19:41:32.746Z,68.06
2024-03-04T19:44:00.452Z,68.17
2024-03-04T19:46:29.209Z,68.12
2024-03-04T19:48:57.276Z,68.18
2024-03-04T19:51:26.481Z,68.27
2024-03-04T19:53:54.973Z,68.33
2024-03-04T19:56:22.773Z,68.33
2024-03-04T19:58:50.391Z,68.30
2024-03-04T20:01:19.533Z,68.29
2024-03-04T20:03:47.142Z,68.38
2024-03-04T20:06:14.907Z,68.41
2024-03-04T20:08:42.973Z,68.63
2024-03-04T20:11:12.531Z,68.60
2024-03-04T20:13:44.292Z,68.64
2024-03-04T20:16:15.898Z,68.83
2024-03-04T20:18:43.626Z,68.90
2024-03-04T20:21:12.844Z,68.94
2024-03-04T20:23:42.268Z,69.06
2024-03-04T20:26:11.235Z,69.24
2024-03-04T20:28:38.845Z,69.24
2024-03-04T20:31:07.565Z,69.33
2024-03-04T20:33:35.807Z,69.43
2024-03-04T20:36:05.615Z,69.55
2024-03-04T20:38:33.337Z,69.66
2024-03-04T20:41:01.414Z,69.69
2024-03-04T20:43:29.144Z,69.88
2024-03-04T20:45:57.762Z,69.86
2024-03-04T20:48:29.346Z,70.05
2024-03-04T20:50:57.789Z,70.10
2024-03-04T20:53:25.340Z,70.12
2024-03-04T20:55:53.051Z,70.04
2024-03-04T20:58:20.837Z,70.08
2024-03-04T21:00:48.645Z,70.24
2024-03-04T21:03:16.269Z,70.29
2024-03-04T21:05:43.877Z,70.24
2024-03-04T21:08:11.437Z,70.11
2024-03-04T21:10:39.549Z,70.23
2024-03-04T21:13:07.138Z,70.35
2024-03-04T21:15:34.712Z,70.48
2024-03-04T21:18:02.438Z,70.74
2024-03-04T21:20:30.147Z,70.70
2024-03-04T21:23:04.190Z,71.02
2024-03-04T21:25:32.505Z,71.07
2024-03-04T21:28:00.128Z,71.19
2024-03-04T21:30:29.233Z,71.28
2024-03-04T21:32:56.852Z,71.36
2024-03-04T21:35:24.370Z,71.41
2024-03-04T21:37:51.988Z,71.49
2024-03-04T21:40:19.805Z,71.67
2024-03-04T21:42:47.474Z,72.01
2024-03-04T21:45:15.028Z,71.98
2024-03-04T21:47:44.857Z,72.07
2024-03-04T21:50:12.429Z,72.20
2024-03-04T21:52:42.128Z,72.21
2024-03-04T21:55:09.915Z,72.20
2024-03-04T21:57:37.512Z,72.18
2024-03-04T22:00:15.758Z,72.30
2024-03-04T22:02:46.863Z,72.49
2024-03-04T22:05:14.643Z,72.65
2024-03-04T22:07:42.685Z,72.38
2024-03-04T22:10:12.675Z,72.38
2024-03-04T22:12:41.472Z,72.31
2024-03-04T22:15:11.340Z,72.36
2024-03-04T22:17:39.104Z,72.63
2024-03-04T22:20:11.550Z,72.73
2024-03-04T22:22:39.527Z,72.76
2024-03-04T22:25:08.299Z,72.85
2024-03-04T22:27:36.089Z,72.91
2024-03-04T22:30:05.291Z,73.12
2024-03-04T22:32:32.974Z,73.36
2024-03-04T22:35:01.917Z,73.40
2024-03-04T22:37:31.799Z,73.36
2024-03-04T22:39:59.517Z,73.44
2024-03-04T22:42:27.031Z,73.31
2024-03-04T22:44:54.843Z,73.50
2024-03-04T22:47:24.338Z,73.42
2024-03-04T22:49:52.144Z,73.55
2024-03-04T22:52:20.336Z,73.31
2024-03-04T22:54:49.330Z,73.12
2024-03-04T22:57:16.984Z,73.31
2024-03-04T22:59:45.275Z,73.50
2024-03-04T23:02:13.252Z,73.66
2024-03-04T23:04:41.016Z,73.79
2024-03-04T23:07:08.632Z,74.00
2024-03-04T23:09:36.246Z,74.29
2024-03-04T23:12:09.928Z,74.43
2024-03-04T23:14:38.262Z,74.25
2024-03-04T23:17:09.619Z,74.34
2024-03-04T23:19:37.500Z,74.29
2024-03-04T23:22:06.908Z,74.35
2024-03-04T23:24:34.372Z,74.54
2024-03-04T23:27:01.855Z,74.52
2024-03-04T23:29:29.343Z,74.53
2024-03-04T23:31:56.908Z,74.48
2024-03-04T23:34:24.645Z,74.43
2024-03-04T23:36:52.506Z,74.31
2024-03-04T23:39:24.338Z,74.34
2024-03-04T23:41:52.451Z,74.56
2024-03-04T23:44:21.280Z,74.39
2024-03-04T23:46:48.941Z,74.41
2024-03-04T23:49:16.645Z,74.56
2024-03-04T23:51:44.317Z,74.73
2024-03-04T23:54:11.816Z,74.67
2024-03-04T23:56:42.905Z,74.78
2024-03-04T23:59:10.700Z,75.07
